createdAt,value
2022-11-30T00:00:10.502Z,62.20
2022-11-30T00:02:37.211Z,62.20
2022-11-30T00:05:03.933Z,62.20
2022-11-30T00:07:30.612Z,62.10
2022-11-30T00:09:57.492Z,62.10
2022-11-30T00:12:24.139Z,62.20
2022-11-30T00:14:50.775Z,62.10
2022-11-30T00:17:17.414Z,62.10
2022-11-30T00:19:44.085Z,62.20
2022-11-30T00:22:10.805Z,62.10
2022-11-30T00:24:37.452Z,62.10
2022-11-30T00:27:04.087Z,62.10
2022-11-30T00:29:30.716Z,62.10
2022-11-30T00:31:57.351Z,62.20
2022-11-30T00:34:24.009Z,62.10
2022-11-30T00:36:50.651Z,62.20
2022-11-30T00:39:17.317Z,62.20
2022-11-30T00:41:43.984Z,62.20
2022-11-30T00:44:10.625Z,62.20
2022-11-30T00:46:37.360Z,62.10
2022-11-30T00:49:04.245Z,62.10
2022-11-30T00:51:30.909Z,62.20
2022-11-30T00:53:57.553Z,62.20
2022-11-30T00:56:24.991Z,62.10
2022-11-30T00:58:51.964Z,62.30
2022-11-30T01:01:18.654Z,62.20
2022-11-30T01:03:45.557Z,62.10
2022-11-30T01:06:12.428Z,62.20
2022-11-30T01:08:39.292Z,62.10
2022-11-30T01:11:05.954Z,62.30
2022-11-30T01:13:32.614Z,62.20
2022-11-30T01:15:59.290Z,62.20
2022-11-30T01:18:25.964Z,62.20
2022-11-30T01:20:52.621Z,62.20
2022-11-30T01:23:19.293Z,62.10
2022-11-30T01:25:45.943Z,62.20
2022-11-30T01:28:12.602Z,62.20
2022-11-30T01:30:39.526Z,62.20
2022-11-30T01:33:06.444Z,62.20
2022-11-30T01:35:33.119Z,62.20
2022-11-30T01:37:59.839Z,62.20
2022-11-30T01:40:26.490Z,62.20
2022-11-30T01:42:53.149Z,62.20
2022-11-30T01:45:19.793Z,62.20
2022-11-30T01:47:46.427Z,62.10
2022-11-30T01:50:13.059Z,62.20
2022-11-30T01:52:39.716Z,62.20
2022-11-30T01:55:06.359Z,62.20
2022-11-30T01:57:33.022Z,62.20
2022-11-30T01:59:59.672Z,62.20
2022-11-30T02:02:26.651Z,62.10
2022-11-30T02:04:53.334Z,62.20
2022-11-30T02:07:20.726Z,62.20
2022-11-30T02:09:48.396Z,62.20
2022-11-30T02:12:15.040Z,62.30
2022-11-30T02:14:41.892Z,62.20
2022-11-30T02:17:08.590Z,62.20
2022-11-30T02:19:35.239Z,62.20
2022-11-30T02:22:01.896Z,62.20
2022-11-30T02:24:28.551Z,62.20
2022-11-30T02:26:55.192Z,62.20
2022-11-30T02:29:22.128Z,62.20
2022-11-30T02:31:48.999Z,62.20
2022-11-30T02:34:15.619Z,62.20
2022-11-30T02:36:42.448Z,62.30
2022-11-30T02:39:09.081Z,62.30
2022-11-30T02:41:38.068Z,62.20
2022-11-30T02:44:04.993Z,63.10
2022-11-30T02:46:31.726Z,62.20
2022-11-30T02:48:59.479Z,62.20
2022-11-30T02:51:26.093Z,62.20
2022-11-30T02:53:52.940Z,62.20
2022-11-30T02:56:19.586Z,62.20
2022-11-30T02:58:46.445Z,62.20
2022-11-30T03:01:13.141Z,62.20
2022-11-30T03:03:40.046Z,62.20
2022-11-30T03:06:06.693Z,62.20
2022-11-30T03:08:33.337Z,62.20
2022-11-30T03:11:00.184Z,62.30
2022-11-30T03:13:26.852Z,62.30
2022-11-30T03:15:53.741Z,62.20
2022-11-30T03:18:20.425Z,62.30
2022-11-30T03:20:47.069Z,62.20
2022-11-30T03:23:13.709Z,62.20
2022-11-30T03:25:40.363Z,62.30
2022-11-30T03:28:07.015Z,62.30
2022-11-30T03:30:33.640Z,62.30
2022-11-30T03:33:00.291Z,62.20
2022-11-30T03:35:27.159Z,62.20
2022-11-30T03:37:53.785Z,62.30
2022-11-30T03:40:20.441Z,62.30
2022-11-30T03:42:47.292Z,62.30
2022-11-30T03:45:13.912Z,62.30
2022-11-30T03:47:40.534Z,62.20
2022-11-30T03:50:07.163Z,62.30
2022-11-30T03:52:33.806Z,62.30
2022-11-30T03:55:00.456Z,62.30
2022-11-30T03:57:27.099Z,62.30
2022-11-30T03:59:53.734Z,62.30
2022-11-30T04:02:20.382Z,62.30
2022-11-30T04:04:47.269Z,62.30
2022-11-30T04:07:14.271Z,62.30
2022-11-30T04:09:40.898Z,62.30
2022-11-30T04:12:07.528Z,62.30
2022-11-30T04:14:34.359Z,62.30
2022-11-30T04:17:01.331Z,62.20
2022-11-30T04:19:27.969Z,62.30
2022-11-30T04:21:54.585Z,62.30
2022-11-30T04:24:21.404Z,62.20
2022-11-30T04:26:48.035Z,62.30
2022-11-30T04:29:14.881Z,62.30
2022-11-30T04:31:41.585Z,62.30
2022-11-30T04:34:08.457Z,62.30
2022-11-30T04:36:35.088Z,62.40
2022-11-30T04:39:01.715Z,62.30
2022-11-30T04:41:28.544Z,62.30
2022-11-30T04:43:55.865Z,62.20
2022-11-30T04:46:22.774Z,62.30
2022-11-30T04:48:49.454Z,62.30
2022-11-30T04:51:16.106Z,62.30
2022-11-30T04:53:42.736Z,62.30
2022-11-30T04:56:09.572Z,62.30
2022-11-30T04:58:36.675Z,62.30
2022-11-30T05:01:03.499Z,62.20
2022-11-30T05:03:30.152Z,62.30
2022-11-30T05:05:58.650Z,62.30
2022-11-30T05:08:25.532Z,63.30
2022-11-30T05:10:53.255Z,62.40
2022-11-30T05:13:20.097Z,62.30
2022-11-30T05:15:46.776Z,62.30
2022-11-30T05:18:13.509Z,62.30
2022-11-30T05:20:40.169Z,62.30
2022-11-30T05:23:06.802Z,62.30
2022-11-30T05:25:33.634Z,62.30
2022-11-30T05:28:00.278Z,62.30
2022-11-30T05:30:27.112Z,62.30
2022-11-30T05:32:53.755Z,62.30
2022-11-30T05:35:20.395Z,62.30
2022-11-30T05:37:47.011Z,62.30
2022-11-30T05:40:13.661Z,62.30
2022-11-30T05:42:40.507Z,62.30
2022-11-30T05:45:07.133Z,62.30
2022-11-30T05:47:33.981Z,62.30
2022-11-30T05:50:00.605Z,62.20
2022-11-30T05:52:27.264Z,62.20
2022-11-30T05:54:53.898Z,62.30
2022-11-30T05:57:22.306Z,62.30
2022-11-30T05:59:48.948Z,62.30
2022-11-30T06:02:15.680Z,62.30
2022-11-30T06:04:42.629Z,62.30
2022-11-30T06:07:09.283Z,62.30
2022-11-30T06:09:35.932Z,62.30
2022-11-30T06:12:02.573Z,62.30
2022-11-30T06:14:29.202Z,62.30
2022-11-30T06:16:55.829Z,62.30
2022-11-30T06:19:22.494Z,62.30
2022-11-30T06:21:49.114Z,62.30
2022-11-30T06:24:15.969Z,62.30
2022-11-30T06:26:42.617Z,62.30
2022-11-30T06:29:09.249Z,62.30
2022-11-30T06:31:35.948Z,62.30
2022-11-30T06:34:02.858Z,62.30
2022-11-30T06:36:35.493Z,62.30
2022-11-30T06:39:03.268Z,62.30
2022-11-30T06:41:29.918Z,62.30
2022-11-30T06:43:56.585Z,62.30
2022-11-30T06:46:23.430Z,62.30
2022-11-30T06:48:50.049Z,62.30
2022-11-30T06:51:16.671Z,62.30
2022-11-30T06:53:43.522Z,62.30
2022-11-30T06:56:11.024Z,62.30
2022-11-30T06:58:38.213Z,62.30
2022-11-30T07:01:04.865Z,62.20
2022-11-30T07:03:31.524Z,62.30
2022-11-30T07:05:58.372Z,62.20
2022-11-30T07:08:25.022Z,62.30
2022-11-30T07:10:51.660Z,62.30
2022-11-30T07:13:18.312Z,62.20
2022-11-30T07:15:44.967Z,62.30
2022-11-30T07:18:11.608Z,62.30
2022-11-30T07:20:38.472Z,62.20
2022-11-30T07:25:52.691Z,62.30
2022-11-30T07:28:19.539Z,62.30
2022-11-30T07:30:46.552Z,62.30
2022-11-30T07:33:13.194Z,62.30
2022-11-30T07:35:39.842Z,62.30
2022-11-30T07:38:09.715Z,62.30
2022-11-30T07:40:36.703Z,62.30
2022-11-30T07:43:03.345Z,62.30
2022-11-30T07:45:30.061Z,62.30
2022-11-30T07:47:56.711Z,62.20
2022-11-30T07:50:23.369Z,62.30
2022-11-30T07:52:50.233Z,62.20
2022-11-30T07:55:16.868Z,62.30
2022-11-30T07:57:43.499Z,62.30
2022-11-30T08:00:10.159Z,62.30
2022-11-30T08:02:36.796Z,63.20
2022-11-30T08:05:03.471Z,62.30
2022-11-30T08:07:30.422Z,62.30
2022-11-30T08:09:57.067Z,62.20
2022-11-30T08:12:23.695Z,62.30
2022-11-30T08:15:18.794Z,62.20
2022-11-30T08:17:37.160Z,62.30
2022-11-30T08:20:04.031Z,62.20
2022-11-30T08:22:30.667Z,62.20
2022-11-30T08:24:57.367Z,62.20
2022-11-30T08:27:24.001Z,62.20
2022-11-30T08:29:50.857Z,62.20
2022-11-30T08:32:17.492Z,62.20
2022-11-30T08:34:44.149Z,62.20
2022-11-30T08:37:10.812Z,62.30
2022-11-30T08:39:37.462Z,62.20
2022-11-30T08:42:04.084Z,62.20
2022-11-30T08:44:30.733Z,62.30
2022-11-30T08:46:57.453Z,62.10
2022-11-30T08:49:25.153Z,62.30
2022-11-30T08:54:38.894Z,62.20
2022-11-30T08:57:05.828Z,62.10
2022-11-30T08:59:32.486Z,62.20
2022-11-30T09:01:59.111Z,62.20
2022-11-30T09:04:25.774Z,62.10
2022-11-30T09:06:52.393Z,62.20
2022-11-30T09:09:19.216Z,62.10
2022-11-30T09:11:45.866Z,62.10
2022-11-30T09:14:12.484Z,62.10
2022-11-30T09:16:39.123Z,62.20
2022-11-30T09:19:05.769Z,62.10
2022-11-30T09:21:32.674Z,62.20
2022-11-30T09:23:59.314Z,62.10
2022-11-30T09:26:25.932Z,62.10
2022-11-30T09:28:52.567Z,62.10
2022-11-30T09:31:19.426Z,62.10
2022-11-30T09:33:46.072Z,62.00
2022-11-30T09:36:12.909Z,62.10
2022-11-30T09:38:39.657Z,62.00
2022-11-30T09:41:06.545Z,62.00
2022-11-30T09:43:33.157Z,62.00
2022-11-30T09:45:59.840Z,62.00
2022-11-30T09:48:26.561Z,62.00
2022-11-30T09:50:53.225Z,62.00
2022-11-30T09:53:24.590Z,62.00
2022-11-30T09:55:54.612Z,62.00
2022-11-30T09:58:21.481Z,62.00
2022-11-30T10:00:48.546Z,62.00
2022-11-30T10:03:15.280Z,61.90
2022-11-30T10:05:42.811Z,62.00
2022-11-30T10:08:09.490Z,62.00
2022-11-30T10:10:36.810Z,62.10
2022-11-30T10:13:03.453Z,62.00
2022-11-30T10:15:30.115Z,62.00
2022-11-30T10:17:56.757Z,62.10
2022-11-30T10:20:23.582Z,62.00
2022-11-30T10:22:50.234Z,62.10
2022-11-30T10:25:16.866Z,62.00
2022-11-30T10:27:43.480Z,62.00
2022-11-30T10:30:10.105Z,62.10
2022-11-30T10:32:36.756Z,62.00
2022-11-30T10:35:03.392Z,62.10
2022-11-30T10:37:30.029Z,62.10
2022-11-30T10:39:56.671Z,62.10
2022-11-30T10:42:23.316Z,62.10
2022-11-30T10:44:50.288Z,62.10
2022-11-30T10:47:17.124Z,62.10
2022-11-30T10:49:43.916Z,62.10
2022-11-30T10:52:10.571Z,62.10
2022-11-30T10:54:37.372Z,62.10
2022-11-30T10:57:04.017Z,62.10
2022-11-30T10:59:30.822Z,62.10
2022-11-30T11:01:57.533Z,62.10
2022-11-30T11:04:24.436Z,62.10
2022-11-30T11:06:51.132Z,62.10
2022-11-30T11:09:18.086Z,62.10
2022-11-30T11:11:44.708Z,62.10
2022-11-30T11:14:11.330Z,62.10
2022-11-30T11:16:37.951Z,62.10
2022-11-30T11:19:04.602Z,62.00
2022-11-30T11:21:31.232Z,62.00
2022-11-30T11:23:57.891Z,63.00
2022-11-30T11:26:24.517Z,61.80
2022-11-30T11:28:51.143Z,61.80
2022-11-30T11:31:18.063Z,61.80
2022-11-30T11:33:44.781Z,61.60
2022-11-30T11:36:11.574Z,61.80
2022-11-30T11:38:38.206Z,61.90
2022-11-30T11:41:05.012Z,61.80
2022-11-30T11:43:31.655Z,61.60
2022-11-30T11:45:58.484Z,61.50
2022-11-30T11:48:29.061Z,61.80
2022-11-30T11:51:06.612Z,61.90
2022-11-30T11:53:39.613Z,61.70
2022-11-30T11:56:10.248Z,61.80
2022-11-30T11:58:36.939Z,61.80
2022-11-30T12:01:31.703Z,61.80
2022-11-30T12:03:50.464Z,61.80
2022-11-30T12:06:17.281Z,61.90
2022-11-30T12:08:43.939Z,61.70
2022-11-30T12:11:10.950Z,61.80
2022-11-30T12:13:40.185Z,61.70
2022-11-30T12:16:06.870Z,61.70
2022-11-30T12:18:33.515Z,61.80
2022-11-30T12:21:00.320Z,61.80
2022-11-30T12:23:26.976Z,61.90
2022-11-30T12:25:53.815Z,61.70
2022-11-30T12:28:20.445Z,61.70
2022-11-30T12:30:47.081Z,61.80
2022-11-30T12:33:13.731Z,61.90
2022-11-30T12:35:40.321Z,61.80
2022-11-30T12:38:06.966Z,61.90
2022-11-30T12:40:33.614Z,61.90
2022-11-30T12:43:00.450Z,61.80
2022-11-30T12:45:27.107Z,61.80
2022-11-30T12:47:56.177Z,61.70
2022-11-30T12:50:22.806Z,61.90
2022-11-30T12:52:49.422Z,61.90
2022-11-30T12:55:16.050Z,61.70
2022-11-30T12:57:42.686Z,61.60
2022-11-30T13:00:09.317Z,61.90
2022-11-30T13:02:36.469Z,61.70
2022-11-30T13:05:03.113Z,61.90
2022-11-30T13:07:29.864Z,61.60
2022-11-30T13:09:56.532Z,61.80
2022-11-30T13:12:23.145Z,61.60
2022-11-30T13:14:50.077Z,61.70
2022-11-30T13:17:16.809Z,61.70
2022-11-30T13:19:43.642Z,61.60
2022-11-30T13:22:13.110Z,61.70
2022-11-30T13:24:39.944Z,61.80
2022-11-30T13:27:06.579Z,61.90
2022-11-30T13:29:35.688Z,61.90
2022-11-30T13:32:02.366Z,61.90
2022-11-30T13:34:29.187Z,61.90
2022-11-30T13:36:55.829Z,61.90
2022-11-30T13:39:22.661Z,61.70
2022-11-30T13:41:49.327Z,61.80
2022-11-30T13:44:16.155Z,61.60
2022-11-30T13:46:42.819Z,61.80
2022-11-30T13:49:09.494Z,61.90
2022-11-30T13:51:36.166Z,61.80
2022-11-30T13:54:25.037Z,61.90
2022-11-30T13:56:49.416Z,62.00
2022-11-30T13:59:17.134Z,62.00
2022-11-30T14:01:43.820Z,61.90
2022-11-30T14:04:10.493Z,62.00
2022-11-30T14:06:37.339Z,62.00
2022-11-30T14:09:03.989Z,62.00
2022-11-30T14:11:30.630Z,61.90
2022-11-30T14:13:57.262Z,61.90
2022-11-30T14:16:23.934Z,62.00
2022-11-30T14:18:50.613Z,62.10
2022-11-30T14:21:17.426Z,62.00
2022-11-30T14:23:44.068Z,62.10
2022-11-30T14:26:11.397Z,62.00
2022-11-30T14:28:38.166Z,62.00
2022-11-30T14:31:04.887Z,62.00
2022-11-30T14:33:31.583Z,62.00
2022-11-30T14:35:58.252Z,62.00
2022-11-30T14:38:24.891Z,62.10
2022-11-30T14:40:51.512Z,62.00
2022-11-30T14:43:18.137Z,62.00
2022-11-30T14:45:44.809Z,62.10
2022-11-30T14:48:11.469Z,62.10
2022-11-30T14:50:38.098Z,62.10
2022-11-30T14:53:04.726Z,62.10
2022-11-30T14:55:31.365Z,62.10
2022-11-30T14:58:02.624Z,62.10
2022-11-30T15:00:32.202Z,62.10
2022-11-30T15:02:59.035Z,62.10
2022-11-30T15:05:25.685Z,62.10
2022-11-30T15:07:52.601Z,62.10
2022-11-30T15:10:19.264Z,62.10
2022-11-30T15:12:45.905Z,62.10
2022-11-30T15:15:12.560Z,62.20
2022-11-30T15:17:39.177Z,62.10
2022-11-30T15:20:05.822Z,62.10
2022-11-30T15:22:32.453Z,62.10
2022-11-30T15:24:59.109Z,62.20
2022-11-30T15:27:25.765Z,62.20
2022-11-30T15:29:52.428Z,62.20
2022-11-30T15:32:19.071Z,62.20
2022-11-30T15:34:45.720Z,62.20
2022-11-30T15:37:14.789Z,62.20
2022-11-30T15:39:41.449Z,62.20
2022-11-30T15:42:08.102Z,62.20
2022-11-30T15:44:34.738Z,62.20
2022-11-30T15:47:01.377Z,62.20
2022-11-30T15:49:28.040Z,62.20
2022-11-30T15:51:57.626Z,62.20
2022-11-30T15:54:26.903Z,62.20
2022-11-30T15:56:53.527Z,62.30
2022-11-30T15:59:20.184Z,62.30
2022-11-30T16:01:46.831Z,62.30
2022-11-30T16:04:13.480Z,62.30
2022-11-30T16:06:40.115Z,62.20
2022-11-30T16:09:06.768Z,62.30
2022-11-30T16:11:33.453Z,62.30
2022-11-30T16:14:00.086Z,62.30
2022-11-30T16:16:26.769Z,62.30
2022-11-30T16:18:55.642Z,62.30
2022-11-30T16:21:22.300Z,62.30
2022-11-30T16:23:48.960Z,62.30
2022-11-30T16:26:43.156Z,62.30
2022-11-30T16:29:02.247Z,62.30
2022-11-30T16:31:28.955Z,62.30
2022-11-30T16:33:55.640Z,62.30
2022-11-30T16:36:22.271Z,62.40
2022-11-30T16:38:48.896Z,62.30
2022-11-30T16:41:15.522Z,62.40
2022-11-30T16:43:42.162Z,62.30
2022-11-30T16:46:08.928Z,62.30
2022-11-30T16:48:35.598Z,62.30
2022-11-30T16:51:02.228Z,62.30
2022-11-30T16:53:29.017Z,62.30
2022-11-30T16:55:55.896Z,62.30
2022-11-30T16:58:22.517Z,62.30
2022-11-30T17:00:49.186Z,62.30
2022-11-30T17:03:16.049Z,62.40
2022-11-30T17:05:42.673Z,62.40
2022-11-30T17:08:09.521Z,62.30
2022-11-30T17:10:36.201Z,62.30
2022-11-30T17:13:03.028Z,62.30
2022-11-30T17:15:29.689Z,62.30
2022-11-30T17:17:56.522Z,62.40
2022-11-30T17:20:23.150Z,62.40
2022-11-30T17:22:49.941Z,62.30
2022-11-30T17:25:16.585Z,62.30
2022-11-30T17:27:43.450Z,62.30
2022-11-30T17:30:10.114Z,62.30
2022-11-30T17:32:36.762Z,62.30
2022-11-30T17:35:03.384Z,62.40
2022-11-30T17:37:30.027Z,62.30
2022-11-30T17:39:56.710Z,62.30
2022-11-30T17:42:23.449Z,62.40
2022-11-30T17:44:50.562Z,62.40
2022-11-30T17:47:17.348Z,63.30
2022-11-30T17:49:44.221Z,62.30
2022-11-30T17:52:10.881Z,62.30
2022-11-30T17:54:37.726Z,62.40
2022-11-30T17:57:04.371Z,62.40
2022-11-30T17:59:31.189Z,62.30
2022-11-30T18:01:57.884Z,62.40
2022-11-30T18:04:24.719Z,62.40
2022-11-30T18:06:51.361Z,62.30
2022-11-30T18:09:18.166Z,62.30
2022-11-30T18:11:44.864Z,62.40
2022-11-30T18:14:12.134Z,62.40
2022-11-30T18:16:38.804Z,62.40
2022-11-30T18:19:05.704Z,62.40
2022-11-30T18:21:32.337Z,62.40
2022-11-30T18:23:58.998Z,62.40
2022-11-30T18:26:25.661Z,62.30
2022-11-30T18:28:53.267Z,62.30
2022-11-30T18:31:19.963Z,63.30
2022-11-30T18:33:46.633Z,62.40
2022-11-30T18:36:13.305Z,62.40
2022-11-30T18:38:39.943Z,62.40
2022-11-30T18:41:06.805Z,62.40
2022-11-30T18:43:33.515Z,62.40
2022-11-30T18:46:00.225Z,62.40
2022-11-30T18:48:27.121Z,62.40
2022-11-30T18:50:53.745Z,62.40
2022-11-30T18:53:20.390Z,62.40
2022-11-30T18:55:47.014Z,62.40
2022-11-30T18:58:13.641Z,62.40
2022-11-30T19:00:40.298Z,62.40
2022-11-30T19:03:06.953Z,62.40
2022-11-30T19:05:33.824Z,62.40
2022-11-30T19:08:00.725Z,62.40
2022-11-30T19:10:27.403Z,62.40
2022-11-30T19:12:54.028Z,62.40
2022-11-30T19:15:20.671Z,62.40
2022-11-30T19:17:47.309Z,62.30
2022-11-30T19:20:13.929Z,62.40
2022-11-30T19:22:40.554Z,62.40
2022-11-30T19:25:07.402Z,62.40
2022-11-30T19:27:34.031Z,62.40
2022-11-30T19:30:00.859Z,62.40
2022-11-30T19:32:27.515Z,62.40
2022-11-30T19:34:54.353Z,62.40
2022-11-30T19:37:20.974Z,62.40
2022-11-30T19:39:47.845Z,62.40
2022-11-30T19:42:14.476Z,62.40
2022-11-30T19:44:41.120Z,62.40
2022-11-30T19:47:07.768Z,62.40
2022-11-30T19:49:34.605Z,62.40
2022-11-30T19:52:01.251Z,62.40
2022-11-30T19:54:27.877Z,62.40
2022-11-30T19:56:54.534Z,62.40
2022-11-30T19:59:21.165Z,62.40
2022-11-30T20:01:48.099Z,62.40
2022-11-30T20:04:14.773Z,62.40
2022-11-30T20:06:41.397Z,62.40
2022-11-30T20:09:08.055Z,62.40
2022-11-30T20:11:34.720Z,62.40
2022-11-30T20:14:01.360Z,62.40
2022-11-30T20:16:28.248Z,62.40
2022-11-30T20:18:54.938Z,62.40
2022-11-30T20:21:21.772Z,62.40
2022-11-30T20:23:48.429Z,62.40
2022-11-30T20:26:15.093Z,62.40
2022-11-30T20:28:41.722Z,62.40
2022-11-30T20:31:08.409Z,62.40
2022-11-30T20:33:35.062Z,62.40
2022-11-30T20:36:01.685Z,63.40
2022-11-30T20:38:28.664Z,62.40
2022-11-30T20:40:55.298Z,62.40
2022-11-30T20:43:21.940Z,62.40
2022-11-30T20:45:48.658Z,62.40
2022-11-30T20:48:15.331Z,62.40
2022-11-30T20:50:41.972Z,62.40
2022-11-30T20:53:08.626Z,62.40
2022-11-30T20:55:35.256Z,62.40
2022-11-30T20:58:01.873Z,62.40
2022-11-30T21:00:28.529Z,62.40
2022-11-30T21:02:55.351Z,62.40
2022-11-30T21:05:22.061Z,62.40
2022-11-30T21:07:48.774Z,62.40
2022-11-30T21:10:15.640Z,62.40
2022-11-30T21:12:42.267Z,62.40
2022-11-30T21:15:09.142Z,62.40
2022-11-30T21:17:35.985Z,62.40
2022-11-30T21:20:02.624Z,62.40
2022-11-30T21:22:29.278Z,62.40
2022-11-30T21:24:55.899Z,62.40
2022-11-30T21:27:22.732Z,62.40
2022-11-30T21:29:49.603Z,62.40
2022-11-30T21:32:16.457Z,62.40
2022-11-30T21:34:43.076Z,62.40
2022-11-30T21:37:09.917Z,62.40
2022-11-30T21:39:36.545Z,62.50
2022-11-30T21:42:03.188Z,62.40
2022-11-30T21:44:30.031Z,62.40
2022-11-30T21:46:56.683Z,62.40
2022-11-30T21:49:23.344Z,62.50
2022-11-30T21:51:50.007Z,62.40
2022-11-30T21:54:16.672Z,62.40
2022-11-30T21:56:43.535Z,62.40
2022-11-30T21:59:10.163Z,62.40
2022-11-30T22:01:36.994Z,62.40
2022-11-30T22:04:03.705Z,62.40
2022-11-30T22:06:30.636Z,62.40
2022-11-30T22:08:57.274Z,62.40
2022-11-30T22:11:23.917Z,62.50
2022-11-30T22:13:50.771Z,62.50
2022-11-30T22:16:17.486Z,62.50
2022-11-30T22:18:44.441Z,62.50
2022-11-30T22:21:11.071Z,62.50
2022-11-30T22:23:37.934Z,62.50
2022-11-30T22:26:04.552Z,62.40
2022-11-30T22:28:31.198Z,62.50
2022-11-30T22:30:57.916Z,62.40
2022-11-30T22:33:24.815Z,62.50
2022-11-30T22:35:51.439Z,62.40
2022-11-30T22:38:18.269Z,62.40
2022-11-30T22:40:44.889Z,62.50
2022-11-30T22:43:11.500Z,62.50
2022-11-30T22:45:38.352Z,62.50
2022-11-30T22:48:04.990Z,62.40
2022-11-30T22:50:31.643Z,62.40
2022-11-30T22:53:05.415Z,62.40
2022-11-30T22:55:32.196Z,62.40
2022-11-30T22:57:59.123Z,62.40
2022-11-30T23:00:25.756Z,63.40
2022-11-30T23:02:52.512Z,62.40
2022-11-30T23:05:19.187Z,62.40
2022-11-30T23:07:45.833Z,62.40
2022-11-30T23:10:13.135Z,62.40
2022-11-30T23:12:58.368Z,62.40
2022-11-30T23:15:25.706Z,62.40
2022-11-30T23:17:52.334Z,62.50
2022-11-30T23:20:18.957Z,62.40
2022-11-30T23:22:45.790Z,62.40
2022-11-30T23:25:12.444Z,62.40
2022-11-30T23:27:39.292Z,62.40
2022-11-30T23:30:05.916Z,62.50
2022-11-30T23:32:32.547Z,62.50
2022-11-30T23:34:59.413Z,62.40
2022-11-30T23:37:26.057Z,62.40
2022-11-30T23:39:52.683Z,62.50
2022-11-30T23:42:19.316Z,62.40
2022-11-30T23:44:45.947Z,62.50
2022-11-30T23:47:18.010Z,62.40
2022-11-30T23:49:45.017Z,62.40
2022-11-30T23:52:11.661Z,62.40
2022-11-30T23:54:38.302Z,62.50
2022-11-30T23:57:04.928Z,62.40
2022-11-30T23:59:31.554Z,62.40
